sensor_id;sensor_type;location;lat;lon;timestamp;P1;durP1;ratioP1;P2;durP2;ratioP2
19191;SDS011;9728;48.194;16.346;2022-09-09T00:04:39;0.50;;;0.40;;
19191;SDS011;9728;48.194;16.346;2022-09-09T00:09:45;0.30;;;0.30;;
19191;SDS011;9728;48.194;16.346;2022-09-09T00:14:51;0.85;;;0.70;;
19191;SDS011;9728;48.194;16.346;2022-09-09T00:19:59;1.13;;;0.50;;
19191;SDS011;9728;48.194;16.346;2022-09-09T00:25:10;0.45;;;0.32;;
19191;SDS011;9728;48.194;16.346;2022-09-09T00:30:19;1.02;;;0.50;;
19191;SDS011;9728;48.194;16.346;2022-09-09T00:35:26;0.80;;;0.80;;
19191;SDS011;9728;48.194;16.346;2022-09-09T00:40:33;0.40;;;0.40;;
19191;SDS011;9728;48.194;16.346;2022-09-09T00:45:53;0.30;;;0.30;;
19191;SDS011;9728;48.194;16.346;2022-09-09T00:51:15;0.82;;;0.50;;
19191;SDS011;9728;48.194;16.346;2022-09-09T00:56:25;0.45;;;0.40;;
19191;SDS011;9728;48.194;16.346;2022-09-09T01:01:32;0.95;;;0.45;;
19191;SDS011;9728;48.194;16.346;2022-09-09T01:06:38;0.40;;;0.40;;
19191;SDS011;9728;48.194;16.346;2022-09-09T01:11:43;2.25;;;0.50;;
19191;SDS011;9728;48.194;16.346;2022-09-09T01:16:58;0.40;;;0.40;;
19191;SDS011;9728;48.194;16.346;2022-09-09T01:22:11;0.60;;;0.35;;
19191;SDS011;9728;48.194;16.346;2022-09-09T01:27:26;0.70;;;0.45;;
19191;SDS011;9728;48.194;16.346;2022-09-09T01:32:40;0.55;;;0.50;;
19191;SDS011;9728;48.194;16.346;2022-09-09T01:37:46;0.50;;;0.50;;
19191;SDS011;9728;48.194;16.346;2022-09-09T01:42:51;0.40;;;0.40;;
19191;SDS011;9728;48.194;16.346;2022-09-09T01:47:55;0.60;;;0.30;;
19191;SDS011;9728;48.194;16.346;2022-09-09T01:53:15;0.30;;;0.25;;
19191;SDS011;9728;48.194;16.346;2022-09-09T01:58:26;0.32;;;0.32;;
19191;SDS011;9728;48.194;16.346;2022-09-09T02:03:36;0.30;;;0.30;;
19191;SDS011;9728;48.194;16.346;2022-09-09T02:08:48;3.38;;;0.30;;
19191;SDS011;9728;48.194;16.346;2022-09-09T02:13:54;1.48;;;0.40;;
19191;SDS011;9728;48.194;16.346;2022-09-09T02:19:01;0.32;;;0.30;;
19191;SDS011;9728;48.194;16.346;2022-09-09T02:24:24;0.20;;;0.20;;
19191;SDS011;9728;48.194;16.346;2022-09-09T02:29:42;0.30;;;0.30;;
19191;SDS011;9728;48.194;16.346;2022-09-09T02:34:53;0.40;;;0.25;;
19191;SDS011;9728;48.194;16.346;2022-09-09T02:40:01;0.30;;;0.28;;
19191;SDS011;9728;48.194;16.346;2022-09-09T02:45:09;0.40;;;0.40;;
19191;SDS011;9728;48.194;16.346;2022-09-09T02:50:16;0.47;;;0.38;;
19191;SDS011;9728;48.194;16.346;2022-09-09T02:55:23;0.60;;;0.30;;
19191;SDS011;9728;48.194;16.346;2022-09-09T03:00:35;0.63;;;0.30;;
19191;SDS011;9728;48.194;16.346;2022-09-09T03:05:39;0.38;;;0.38;;
19191;SDS011;9728;48.194;16.346;2022-09-09T03:10:45;0.30;;;0.30;;
19191;SDS011;9728;48.194;16.346;2022-09-09T03:15:50;0.60;;;0.28;;
19191;SDS011;9728;48.194;16.346;2022-09-09T03:20:55;0.63;;;0.30;;
19191;SDS011;9728;48.194;16.346;2022-09-09T03:25:59;1.42;;;0.60;;
19191;SDS011;9728;48.194;16.346;2022-09-09T03:31:12;0.40;;;0.40;;
19191;SDS011;9728;48.194;16.346;2022-09-09T03:36:17;0.30;;;0.30;;
19191;SDS011;9728;48.194;16.346;2022-09-09T03:41:21;0.30;;;0.30;;
19191;SDS011;9728;48.194;16.346;2022-09-09T03:46:27;0.55;;;0.30;;
19191;SDS011;9728;48.194;16.346;2022-09-09T03:51:30;0.38;;;0.38;;
19191;SDS011;9728;48.194;16.346;2022-09-09T03:56:39;0.52;;;0.50;;
19191;SDS011;9728;48.194;16.346;2022-09-09T04:01:47;0.65;;;0.50;;
19191;SDS011;9728;48.194;16.346;2022-09-09T04:06:51;0.75;;;0.50;;
19191;SDS011;9728;48.194;16.346;2022-09-09T04:11:54;1.52;;;0.50;;
19191;SDS011;9728;48.194;16.346;2022-09-09T04:16:59;0.45;;;0.45;;
19191;SDS011;9728;48.194;16.346;2022-09-09T04:22:06;0.55;;;0.40;;
19191;SDS011;9728;48.194;16.346;2022-09-09T04:27:10;0.60;;;0.60;;
19191;SDS011;9728;48.194;16.346;2022-09-09T04:32:14;0.47;;;0.47;;
19191;SDS011;9728;48.194;16.346;2022-09-09T04:37:18;0.80;;;0.70;;
19191;SDS011;9728;48.194;16.346;2022-09-09T04:42:21;0.73;;;0.68;;
19191;SDS011;9728;48.194;16.346;2022-09-09T04:47:26;0.73;;;0.73;;
19191;SDS011;9728;48.194;16.346;2022-09-09T04:52:29;1.30;;;0.60;;
19191;SDS011;9728;48.194;16.346;2022-09-09T04:57:34;1.13;;;0.73;;
19191;SDS011;9728;48.194;16.346;2022-09-09T05:02:39;1.50;;;0.55;;
19191;SDS011;9728;48.194;16.346;2022-09-09T05:07:44;3.13;;;0.90;;
19191;SDS011;9728;48.194;16.346;2022-09-09T05:12:52;1.38;;;0.65;;
19191;SDS011;9728;48.194;16.346;2022-09-09T05:18:00;1.23;;;0.88;;
19191;SDS011;9728;48.194;16.346;2022-09-09T05:23:06;3.40;;;0.85;;
19191;SDS011;9728;48.194;16.346;2022-09-09T05:28:11;5.43;;;0.90;;
19191;SDS011;9728;48.194;16.346;2022-09-09T05:33:16;4.18;;;0.95;;
19191;SDS011;9728;48.194;16.346;2022-09-09T05:38:20;1.90;;;0.80;;
19191;SDS011;9728;48.194;16.346;2022-09-09T05:43:29;3.17;;;0.98;;
19191;SDS011;9728;48.194;16.346;2022-09-09T05:48:35;2.35;;;1.00;;
19191;SDS011;9728;48.194;16.346;2022-09-09T05:53:40;3.05;;;0.90;;
19191;SDS011;9728;48.194;16.346;2022-09-09T05:58:46;1.90;;;1.13;;
19191;SDS011;9728;48.194;16.346;2022-09-09T06:03:53;2.85;;;1.00;;
19191;SDS011;9728;48.194;16.346;2022-09-09T06:08:58;4.05;;;1.00;;
19191;SDS011;9728;48.194;16.346;2022-09-09T06:14:08;3.20;;;0.90;;
19191;SDS011;9728;48.194;16.346;2022-09-09T06:19:14;1.83;;;0.90;;
19191;SDS011;9728;48.194;16.346;2022-09-09T06:24:18;1.77;;;1.00;;
19191;SDS011;9728;48.194;16.346;2022-09-09T06:29:22;1.83;;;0.88;;
19191;SDS011;9728;48.194;16.346;2022-09-09T06:34:28;3.53;;;1.05;;
19191;SDS011;9728;48.194;16.346;2022-09-09T06:39:33;1.17;;;0.85;;
19191;SDS011;9728;48.194;16.346;2022-09-09T06:44:37;2.25;;;1.17;;
19191;SDS011;9728;48.194;16.346;2022-09-09T06:49:47;1.33;;;0.95;;
19191;SDS011;9728;48.194;16.346;2022-09-09T06:54:50;2.45;;;1.08;;
19191;SDS011;9728;48.194;16.346;2022-09-09T06:59:55;1.55;;;0.93;;
19191;SDS011;9728;48.194;16.346;2022-09-09T07:05:00;3.33;;;1.00;;
19191;SDS011;9728;48.194;16.346;2022-09-09T07:10:04;1.52;;;1.00;;
19191;SDS011;9728;48.194;16.346;2022-09-09T07:15:10;1.83;;;1.10;;
19191;SDS011;9728;48.194;16.346;2022-09-09T07:20:19;1.45;;;1.10;;
19191;SDS011;9728;48.194;16.346;2022-09-09T07:25:24;1.67;;;0.95;;
19191;SDS011;9728;48.194;16.346;2022-09-09T07:30:29;3.92;;;0.95;;
19191;SDS011;9728;48.194;16.346;2022-09-09T07:35:35;2.45;;;1.20;;
19191;SDS011;9728;48.194;16.346;2022-09-09T07:40:39;1.65;;;0.95;;
19191;SDS011;9728;48.194;16.346;2022-09-09T07:45:43;2.88;;;0.90;;
19191;SDS011;9728;48.194;16.346;2022-09-09T07:50:48;3.97;;;1.65;;
19191;SDS011;9728;48.194;16.346;2022-09-09T07:55:52;2.10;;;0.90;;
19191;SDS011;9728;48.194;16.346;2022-09-09T08:00:57;1.77;;;1.10;;
19191;SDS011;9728;48.194;16.346;2022-09-09T08:06:02;1.38;;;1.00;;
19191;SDS011;9728;48.194;16.346;2022-09-09T08:11:09;0.93;;;0.85;;
19191;SDS011;9728;48.194;16.346;2022-09-09T08:16:17;1.75;;;0.90;;
19191;SDS011;9728;48.194;16.346;2022-09-09T08:21:25;1.92;;;0.80;;
19191;SDS011;9728;48.194;16.346;2022-09-09T08:26:33;2.03;;;0.90;;
19191;SDS011;9728;48.194;16.346;2022-09-09T08:31:39;1.10;;;0.77;;
19191;SDS011;9728;48.194;16.346;2022-09-09T08:36:46;2.20;;;1.00;;
19191;SDS011;9728;48.194;16.346;2022-09-09T08:47:33;1.27;;;0.85;;
19191;SDS011;9728;48.194;16.346;2022-09-09T08:52:51;0.90;;;0.80;;
19191;SDS011;9728;48.194;16.346;2022-09-09T08:57:58;1.65;;;0.90;;
19191;SDS011;9728;48.194;16.346;2022-09-09T09:03:11;1.35;;;0.90;;
19191;SDS011;9728;48.194;16.346;2022-09-09T09:08:28;1.67;;;0.85;;
19191;SDS011;9728;48.194;16.346;2022-09-09T09:13:40;1.70;;;0.95;;
19191;SDS011;9728;48.194;16.346;2022-09-09T09:18:51;1.40;;;0.90;;
19191;SDS011;9728;48.194;16.346;2022-09-09T09:24:00;1.58;;;1.40;;
19191;SDS011;9728;48.194;16.346;2022-09-09T09:29:08;2.20;;;0.90;;
19191;SDS011;9728;48.194;16.346;2022-09-09T09:34:15;0.93;;;0.80;;
19191;SDS011;9728;48.194;16.346;2022-09-09T09:39:24;1.17;;;0.73;;
19191;SDS011;9728;48.194;16.346;2022-09-09T09:44:49;1.65;;;0.60;;
19191;SDS011;9728;48.194;16.346;2022-09-09T09:49:56;1.40;;;0.80;;
19191;SDS011;9728;48.194;16.346;2022-09-09T09:55:05;2.03;;;0.75;;
19191;SDS011;9728;48.194;16.346;2022-09-09T10:00:19;1.17;;;0.80;;
19191;SDS011;9728;48.194;16.346;2022-09-09T10:05:35;2.33;;;0.80;;
19191;SDS011;9728;48.194;16.346;2022-09-09T10:10:53;0.70;;;0.52;;
19191;SDS011;9728;48.194;16.346;2022-09-09T10:16:08;0.80;;;0.63;;
19191;SDS011;9728;48.194;16.346;2022-09-09T10:21:27;1.20;;;0.60;;
19191;SDS011;9728;48.194;16.346;2022-09-09T10:26:47;2.33;;;0.70;;
19191;SDS011;9728;48.194;16.346;2022-09-09T10:31:59;0.93;;;0.80;;
19191;SDS011;9728;48.194;16.346;2022-09-09T10:37:11;1.15;;;0.70;;
19191;SDS011;9728;48.194;16.346;2022-09-09T10:42:26;0.80;;;0.80;;
19191;SDS011;9728;48.194;16.346;2022-09-09T10:47:37;1.23;;;0.85;;
19191;SDS011;9728;48.194;16.346;2022-09-09T10:52:54;1.00;;;0.80;;
19191;SDS011;9728;48.194;16.346;2022-09-09T10:58:09;1.30;;;1.20;;
19191;SDS011;9728;48.194;16.346;2022-09-09T11:03:19;2.05;;;0.75;;
19191;SDS011;9728;48.194;16.346;2022-09-09T11:08:26;1.15;;;0.80;;
19191;SDS011;9728;48.194;16.346;2022-09-09T11:13:35;1.05;;;0.68;;
19191;SDS011;9728;48.194;16.346;2022-09-09T11:18:45;2.10;;;1.42;;
19191;SDS011;9728;48.194;16.346;2022-09-09T11:23:51;1.38;;;0.70;;
19191;SDS011;9728;48.194;16.346;2022-09-09T11:29:04;1.95;;;0.60;;
19191;SDS011;9728;48.194;16.346;2022-09-09T11:34:31;2.10;;;0.63;;
19191;SDS011;9728;48.194;16.346;2022-09-09T11:39:49;5.07;;;1.00;;
19191;SDS011;9728;48.194;16.346;2022-09-09T11:45:10;3.35;;;0.80;;
19191;SDS011;9728;48.194;16.346;2022-09-09T11:50:32;1.80;;;0.60;;
19191;SDS011;9728;48.194;16.346;2022-09-09T11:55:37;0.60;;;0.60;;
19191;SDS011;9728;48.194;16.346;2022-09-09T12:00:42;0.70;;;0.60;;
19191;SDS011;9728;48.194;16.346;2022-09-09T12:05:47;0.85;;;0.52;;
19191;SDS011;9728;48.194;16.346;2022-09-09T12:10:53;1.38;;;0.70;;
19191;SDS011;9728;48.194;16.346;2022-09-09T12:15:59;1.70;;;0.60;;
19191;SDS011;9728;48.194;16.346;2022-09-09T12:21:05;0.80;;;0.70;;
19191;SDS011;9728;48.194;16.346;2022-09-09T12:26:21;0.52;;;0.45;;
19191;SDS011;9728;48.194;16.346;2022-09-09T12:31:38;0.90;;;0.50;;
19191;SDS011;9728;48.194;16.346;2022-09-09T12:36:47;1.80;;;1.08;;
19191;SDS011;9728;48.194;16.346;2022-09-09T12:41:56;0.88;;;0.70;;
19191;SDS011;9728;48.194;16.346;2022-09-09T12:47:01;2.13;;;0.90;;
19191;SDS011;9728;48.194;16.346;2022-09-09T12:52:07;0.57;;;0.55;;
19191;SDS011;9728;48.194;16.346;2022-09-09T12:57:18;1.05;;;0.75;;
19191;SDS011;9728;48.194;16.346;2022-09-09T13:02:24;0.88;;;0.60;;
19191;SDS011;9728;48.194;16.346;2022-09-09T13:07:29;0.60;;;0.60;;
19191;SDS011;9728;48.194;16.346;2022-09-09T13:12:32;1.25;;;0.70;;
19191;SDS011;9728;48.194;16.346;2022-09-09T13:17:37;0.60;;;0.60;;
19191;SDS011;9728;48.194;16.346;2022-09-09T13:22:42;0.47;;;0.47;;
19191;SDS011;9728;48.194;16.346;2022-09-09T13:27:51;1.27;;;0.73;;
19191;SDS011;9728;48.194;16.346;2022-09-09T13:33:17;0.75;;;0.60;;
19191;SDS011;9728;48.194;16.346;2022-09-09T13:38:24;0.60;;;0.60;;
19191;SDS011;9728;48.194;16.346;2022-09-09T13:43:28;2.17;;;0.60;;
19191;SDS011;9728;48.194;16.346;2022-09-09T13:48:35;0.70;;;0.70;;
19191;SDS011;9728;48.194;16.346;2022-09-09T13:53:38;1.02;;;0.77;;
19191;SDS011;9728;48.194;16.346;2022-09-09T13:58:41;0.70;;;0.50;;
19191;SDS011;9728;48.194;16.346;2022-09-09T14:03:46;1.05;;;0.60;;
19191;SDS011;9728;48.194;16.346;2022-09-09T14:08:49;0.80;;;0.80;;
19191;SDS011;9728;48.194;16.346;2022-09-09T14:13:53;0.70;;;0.70;;
19191;SDS011;9728;48.194;16.346;2022-09-09T14:18:58;0.75;;;0.60;;
19191;SDS011;9728;48.194;16.346;2022-09-09T14:24:02;1.20;;;1.10;;
19191;SDS011;9728;48.194;16.346;2022-09-09T14:29:06;1.40;;;1.15;;
19191;SDS011;9728;48.194;16.346;2022-09-09T14:34:11;1.10;;;0.93;;
19191;SDS011;9728;48.194;16.346;2022-09-09T14:39:15;2.03;;;1.10;;
19191;SDS011;9728;48.194;16.346;2022-09-09T14:44:18;1.70;;;1.20;;
19191;SDS011;9728;48.194;16.346;2022-09-09T14:49:23;1.20;;;1.10;;
19191;SDS011;9728;48.194;16.346;2022-09-09T14:54:27;2.55;;;0.70;;
19191;SDS011;9728;48.194;16.346;2022-09-09T14:59:30;3.17;;;1.48;;
19191;SDS011;9728;48.194;16.346;2022-09-09T15:04:35;1.23;;;0.77;;
19191;SDS011;9728;48.194;16.346;2022-09-09T15:09:38;1.40;;;1.00;;
19191;SDS011;9728;48.194;16.346;2022-09-09T15:14:41;2.33;;;1.00;;
19191;SDS011;9728;48.194;16.346;2022-09-09T15:19:46;1.40;;;1.30;;
19191;SDS011;9728;48.194;16.346;2022-09-09T15:24:55;2.30;;;1.13;;
19191;SDS011;9728;48.194;16.346;2022-09-09T15:29:59;4.03;;;1.45;;
19191;SDS011;9728;48.194;16.346;2022-09-09T15:35:04;3.75;;;0.98;;
19191;SDS011;9728;48.194;16.346;2022-09-09T15:40:08;2.25;;;1.08;;
19191;SDS011;9728;48.194;16.346;2022-09-09T15:45:11;1.20;;;0.80;;
19191;SDS011;9728;48.194;16.346;2022-09-09T15:50:17;0.88;;;0.88;;
19191;SDS011;9728;48.194;16.346;2022-09-09T15:55:21;1.08;;;0.82;;
19191;SDS011;9728;48.194;16.346;2022-09-09T16:00:25;0.90;;;0.70;;
19191;SDS011;9728;48.194;16.346;2022-09-09T16:05:31;1.05;;;0.80;;
19191;SDS011;9728;48.194;16.346;2022-09-09T16:10:35;1.75;;;1.20;;
19191;SDS011;9728;48.194;16.346;2022-09-09T16:15:39;0.80;;;0.80;;
19191;SDS011;9728;48.194;16.346;2022-09-09T16:20:43;1.23;;;0.82;;
19191;SDS011;9728;48.194;16.346;2022-09-09T16:25:56;2.00;;;0.75;;
19191;SDS011;9728;48.194;16.346;2022-09-09T16:31:06;2.80;;;0.90;;
19191;SDS011;9728;48.194;16.346;2022-09-09T16:36:13;1.02;;;0.77;;
19191;SDS011;9728;48.194;16.346;2022-09-09T16:41:18;1.75;;;0.77;;
19191;SDS011;9728;48.194;16.346;2022-09-09T16:46:21;2.75;;;0.80;;
19191;SDS011;9728;48.194;16.346;2022-09-09T16:51:28;1.75;;;1.05;;
19191;SDS011;9728;48.194;16.346;2022-09-09T16:56:33;1.23;;;1.00;;
19191;SDS011;9728;48.194;16.346;2022-09-09T17:01:38;1.83;;;1.13;;
19191;SDS011;9728;48.194;16.346;2022-09-09T17:06:46;1.42;;;0.73;;
19191;SDS011;9728;48.194;16.346;2022-09-09T17:11:51;1.17;;;0.77;;
19191;SDS011;9728;48.194;16.346;2022-09-09T17:16:57;0.70;;;0.70;;
19191;SDS011;9728;48.194;16.346;2022-09-09T17:22:22;1.95;;;1.10;;
19191;SDS011;9728;48.194;16.346;2022-09-09T17:27:27;3.38;;;0.90;;
19191;SDS011;9728;48.194;16.346;2022-09-09T17:32:32;3.03;;;0.63;;
19191;SDS011;9728;48.194;16.346;2022-09-09T17:37:38;2.08;;;0.88;;
19191;SDS011;9728;48.194;16.346;2022-09-09T17:42:41;10.05;;;0.95;;
19191;SDS011;9728;48.194;16.346;2022-09-09T17:47:45;2.33;;;1.38;;
19191;SDS011;9728;48.194;16.346;2022-09-09T17:52:51;1.05;;;0.70;;
19191;SDS011;9728;48.194;16.346;2022-09-09T17:57:54;1.63;;;0.70;;
19191;SDS011;9728;48.194;16.346;2022-09-09T18:02:57;1.40;;;0.82;;
19191;SDS011;9728;48.194;16.346;2022-09-09T18:08:02;1.63;;;0.90;;
19191;SDS011;9728;48.194;16.346;2022-09-09T18:13:06;1.73;;;0.70;;
19191;SDS011;9728;48.194;16.346;2022-09-09T18:18:10;2.90;;;0.70;;
19191;SDS011;9728;48.194;16.346;2022-09-09T18:23:15;1.50;;;0.70;;
19191;SDS011;9728;48.194;16.346;2022-09-09T18:28:19;5.18;;;1.27;;
19191;SDS011;9728;48.194;16.346;2022-09-09T18:33:34;2.55;;;1.00;;
19191;SDS011;9728;48.194;16.346;2022-09-09T18:38:40;1.85;;;0.70;;
19191;SDS011;9728;48.194;16.346;2022-09-09T18:43:44;1.10;;;0.77;;
19191;SDS011;9728;48.194;16.346;2022-09-09T18:48:47;1.00;;;0.80;;
19191;SDS011;9728;48.194;16.346;2022-09-09T18:53:54;0.63;;;0.63;;
19191;SDS011;9728;48.194;16.346;2022-09-09T18:58:59;3.58;;;0.90;;
19191;SDS011;9728;48.194;16.346;2022-09-09T19:04:05;0.60;;;0.60;;
19191;SDS011;9728;48.194;16.346;2022-09-09T19:09:11;1.00;;;0.90;;
19191;SDS011;9728;48.194;16.346;2022-09-09T19:14:16;0.85;;;0.65;;
19191;SDS011;9728;48.194;16.346;2022-09-09T19:19:20;2.53;;;0.98;;
19191;SDS011;9728;48.194;16.346;2022-09-09T19:24:27;1.38;;;0.63;;
19191;SDS011;9728;48.194;16.346;2022-09-09T19:29:34;1.60;;;0.90;;
19191;SDS011;9728;48.194;16.346;2022-09-09T19:34:40;0.77;;;0.77;;
19191;SDS011;9728;48.194;16.346;2022-09-09T19:39:46;2.25;;;0.68;;
19191;SDS011;9728;48.194;16.346;2022-09-09T19:44:50;2.67;;;0.70;;
19191;SDS011;9728;48.194;16.346;2022-09-09T19:49:53;0.90;;;0.73;;
19191;SDS011;9728;48.194;16.346;2022-09-09T19:54:57;1.27;;;0.77;;
19191;SDS011;9728;48.194;16.346;2022-09-09T20:00:02;0.73;;;0.52;;
19191;SDS011;9728;48.194;16.346;2022-09-09T20:05:12;0.88;;;0.80;;
19191;SDS011;9728;48.194;16.346;2022-09-09T20:10:17;0.50;;;0.50;;
19191;SDS011;9728;48.194;16.346;2022-09-09T20:15:21;0.68;;;0.60;;
19191;SDS011;9728;48.194;16.346;2022-09-09T20:20:24;2.15;;;0.63;;
19191;SDS011;9728;48.194;16.346;2022-09-09T20:25:28;0.93;;;0.55;;
19191;SDS011;9728;48.194;16.346;2022-09-09T20:30:32;1.15;;;0.70;;
19191;SDS011;9728;48.194;16.346;2022-09-09T20:35:38;0.75;;;0.70;;
19191;SDS011;9728;48.194;16.346;2022-09-09T20:40:45;1.83;;;0.75;;
19191;SDS011;9728;48.194;16.346;2022-09-09T20:45:48;0.95;;;0.50;;
19191;SDS011;9728;48.194;16.346;2022-09-09T20:50:54;1.00;;;0.70;;
19191;SDS011;9728;48.194;16.346;2022-09-09T20:55:59;1.10;;;0.70;;
19191;SDS011;9728;48.194;16.346;2022-09-09T21:01:03;1.05;;;0.75;;
19191;SDS011;9728;48.194;16.346;2022-09-09T21:06:07;0.70;;;0.70;;
19191;SDS011;9728;48.194;16.346;2022-09-09T21:11:12;1.25;;;0.93;;
19191;SDS011;9728;48.194;16.346;2022-09-09T21:16:17;1.20;;;0.70;;
19191;SDS011;9728;48.194;16.346;2022-09-09T21:21:24;1.52;;;1.02;;
19191;SDS011;9728;48.194;16.346;2022-09-09T21:26:29;1.50;;;0.70;;
19191;SDS011;9728;48.194;16.346;2022-09-09T21:31:32;1.10;;;0.75;;
19191;SDS011;9728;48.194;16.346;2022-09-09T21:36:36;1.20;;;0.80;;
19191;SDS011;9728;48.194;16.346;2022-09-09T21:41:40;3.13;;;0.88;;
19191;SDS011;9728;48.194;16.346;2022-09-09T21:46:44;0.80;;;0.80;;
19191;SDS011;9728;48.194;16.346;2022-09-09T21:51:47;1.27;;;0.70;;
19191;SDS011;9728;48.194;16.346;2022-09-09T21:56:52;1.38;;;1.00;;
19191;SDS011;9728;48.194;16.346;2022-09-09T22:01:55;0.85;;;0.77;;
19191;SDS011;9728;48.194;16.346;2022-09-09T22:07:00;1.52;;;1.00;;
19191;SDS011;9728;48.194;16.346;2022-09-09T22:12:05;1.05;;;0.90;;
19191;SDS011;9728;48.194;16.346;2022-09-09T22:17:08;1.38;;;0.73;;
19191;SDS011;9728;48.194;16.346;2022-09-09T22:22:12;1.95;;;0.90;;
19191;SDS011;9728;48.194;16.346;2022-09-09T22:27:17;0.98;;;0.70;;
19191;SDS011;9728;48.194;16.346;2022-09-09T22:32:20;0.80;;;0.80;;
19191;SDS011;9728;48.194;16.346;2022-09-09T22:37:24;0.82;;;0.77;;
19191;SDS011;9728;48.194;16.346;2022-09-09T22:42:28;0.73;;;0.73;;
19191;SDS011;9728;48.194;16.346;2022-09-09T22:47:32;1.58;;;0.82;;
19191;SDS011;9728;48.194;16.346;2022-09-09T22:52:35;1.10;;;0.52;;
19191;SDS011;9728;48.194;16.346;2022-09-09T22:57:40;1.45;;;0.60;;
19191;SDS011;9728;48.194;16.346;2022-09-09T23:02:43;1.15;;;0.63;;
19191;SDS011;9728;48.194;16.346;2022-09-09T23:07:49;0.60;;;0.50;;
19191;SDS011;9728;48.194;16.346;2022-09-09T23:12:55;0.50;;;0.50;;
19191;SDS011;9728;48.194;16.346;2022-09-09T23:17:59;0.82;;;0.50;;
19191;SDS011;9728;48.194;16.346;2022-09-09T23:23:02;0.50;;;0.50;;
19191;SDS011;9728;48.194;16.346;2022-09-09T23:28:07;2.08;;;0.70;;
19191;SDS011;9728;48.194;16.346;2022-09-09T23:33:10;0.50;;;0.50;;
19191;SDS011;9728;48.194;16.346;2022-09-09T23:38:13;0.90;;;0.57;;
19191;SDS011;9728;48.194;16.346;2022-09-09T23:43:18;1.05;;;0.57;;
19191;SDS011;9728;48.194;16.346;2022-09-09T23:48:22;1.10;;;0.50;;
19191;SDS011;9728;48.194;16.346;2022-09-09T23:53:27;0.80;;;0.52;;
19191;SDS011;9728;48.194;16.346;2022-09-09T23:58:33;0.32;;;0.30;;
